createdAt,value
2018-09-16T00:01:35.227Z,101955.90
2018-09-16T00:04:01.173Z,101955.90
2018-09-16T00:06:27.143Z,101951.21
2018-09-16T00:08:54.157Z,101948.22
2018-09-16T00:11:20.095Z,101944.26
2018-09-16T00:13:46.059Z,101943.77
2018-09-16T00:16:12.008Z,101949.05
2018-09-16T00:18:37.959Z,101938.59
2018-09-16T00:21:03.911Z,101938.59
2018-09-16T00:23:29.860Z,101935.84
2018-09-16T00:25:55.828Z,101937.99
2018-09-16T00:28:21.871Z,101936.92
2018-09-16T00:30:47.827Z,101932.95
2018-09-16T00:33:13.827Z,101937.90
2018-09-16T00:35:39.771Z,101932.61
2018-09-16T00:38:05.742Z,101934.05
2018-09-16T00:40:31.684Z,101934.87
2018-09-16T00:42:57.644Z,101935.37
2018-09-16T00:45:23.599Z,101929.02
2018-09-16T00:47:49.562Z,101926.86
2018-09-16T00:50:15.504Z,101925.16
2018-09-16T00:52:41.451Z,101918.55
2018-09-16T00:55:07.600Z,101914.35
2018-09-16T00:57:33.620Z,101913.38
2018-09-16T00:59:59.696Z,101911.22
2018-09-16T01:02:25.634Z,101909.41
2018-09-16T01:04:51.699Z,101912.05
2018-09-16T01:07:17.642Z,101911.22
2018-09-16T01:09:43.594Z,101904.61
2018-09-16T01:12:09.592Z,101907.63
2018-09-16T01:14:35.541Z,101899.47
2018-09-16T01:17:01.484Z,101905.70
2018-09-16T01:19:27.496Z,101900.30
2018-09-16T01:21:53.536Z,101896.94
2018-09-16T01:24:19.488Z,101900.30
2018-09-16T01:26:45.473Z,101893.95
2018-09-16T01:29:11.446Z,101894.41
2018-09-16T01:31:37.500Z,101900.55
2018-09-16T01:34:03.478Z,101897.53
2018-09-16T01:36:29.444Z,101889.27
2018-09-16T01:38:55.416Z,101882.65
2018-09-16T01:41:21.358Z,101884.09
2018-09-16T01:43:47.323Z,101884.23
2018-09-16T01:46:13.361Z,101876.64
2018-09-16T01:48:39.320Z,101883.97
2018-09-16T01:51:05.272Z,101884.09
2018-09-16T01:53:31.244Z,101883.14
2018-09-16T01:55:57.217Z,101871.36
2018-09-16T01:58:23.171Z,101872.56
2018-09-16T02:00:49.135Z,101868.60
2018-09-16T02:03:15.089Z,101864.86
2018-09-16T02:05:41.085Z,101861.88
2018-09-16T02:08:08.043Z,101866.56
2018-09-16T02:10:33.995Z,101863.42
2018-09-16T02:12:59.944Z,101860.55
2018-09-16T02:15:25.906Z,101865.00
2018-09-16T02:17:51.859Z,101861.04
2018-09-16T02:20:17.811Z,101861.98
2018-09-16T02:22:43.751Z,101849.75
2018-09-16T02:25:09.829Z,101853.33
2018-09-16T02:27:35.790Z,101844.46
2018-09-16T02:30:01.741Z,101844.46
2018-09-16T02:32:27.684Z,101843.97
2018-09-16T02:34:53.645Z,101840.50
2018-09-16T02:37:19.587Z,101836.53
2018-09-16T02:39:45.547Z,101836.53
2018-09-16T02:42:11.576Z,101834.38
2018-09-16T02:44:37.532Z,101828.23
2018-09-16T02:47:03.492Z,101827.88
2018-09-16T02:49:29.448Z,101826.08
2018-09-16T02:51:55.413Z,101827.54
2018-09-16T02:54:21.387Z,101819.23
2018-09-16T02:56:47.464Z,101821.77
2018-09-16T02:59:13.409Z,101818.89
2018-09-16T03:01:39.381Z,101814.20
2018-09-16T03:04:05.336Z,101815.88
2018-09-16T03:06:31.285Z,101820.21
2018-09-16T03:08:57.249Z,101816.36
2018-09-16T03:11:23.286Z,101819.00
2018-09-16T03:13:49.188Z,101816.50
2018-09-16T03:16:15.142Z,101813.14
2018-09-16T03:18:41.252Z,101818.42
2018-09-16T03:21:07.151Z,101818.42
2018-09-16T03:23:33.100Z,101821.79
2018-09-16T03:25:59.103Z,101815.78
2018-09-16T03:28:25.052Z,101815.89
2018-09-16T03:30:51.025Z,101811.93
2018-09-16T03:33:16.981Z,101812.77
2018-09-16T03:35:42.919Z,101815.41
2018-09-16T03:38:08.963Z,101817.22
2018-09-16T03:40:34.996Z,101816.87
2018-09-16T03:43:01.029Z,101814.83
2018-09-16T03:45:26.980Z,101814.00
2018-09-16T03:47:52.940Z,101818.07
2018-09-16T03:50:18.882Z,101813.63
2018-09-16T03:52:44.836Z,101810.98
2018-09-16T03:55:10.800Z,101809.66
2018-09-16T03:57:36.745Z,101810.63
2018-09-16T04:00:02.688Z,101807.99
2018-09-16T04:02:28.718Z,101801.88
2018-09-16T04:04:54.696Z,101801.01
2018-09-16T04:07:20.640Z,101799.58
2018-09-16T04:09:46.590Z,101800.90
2018-09-16T04:12:12.539Z,101808.11
2018-09-16T04:14:38.591Z,101808.94
2018-09-16T04:17:04.551Z,101805.95
2018-09-16T04:19:30.525Z,101802.82
2018-09-16T04:21:56.484Z,101801.98
2018-09-16T04:24:22.427Z,101800.67
2018-09-16T04:26:48.410Z,101801.61
2018-09-16T04:29:14.359Z,101806.55
2018-09-16T04:31:40.310Z,101804.73
2018-09-16T04:34:06.257Z,101806.06
2018-09-16T04:36:32.220Z,101806.55
2018-09-16T04:38:58.167Z,101811.49
2018-09-16T04:41:24.111Z,101806.20
2018-09-16T04:43:50.067Z,101804.51
2018-09-16T04:46:16.023Z,101802.84
2018-09-16T04:48:41.966Z,101814.35
2018-09-16T04:51:08.092Z,101813.66
2018-09-16T04:53:34.150Z,101818.95
2018-09-16T04:56:00.102Z,101812.80
2018-09-16T04:58:26.059Z,101819.41
2018-09-16T05:00:52.024Z,101809.47
2018-09-16T05:03:18.001Z,101810.64
2018-09-16T05:05:43.951Z,101811.13
2018-09-16T05:08:09.941Z,101805.96
2018-09-16T05:10:35.960Z,101814.03
2018-09-16T05:13:01.864Z,101813.54
2018-09-16T05:15:27.813Z,101814.48
2018-09-16T05:17:53.779Z,101813.16
2018-09-16T05:20:19.728Z,101805.46
2018-09-16T05:22:45.703Z,101805.88
2018-09-16T05:25:11.695Z,101805.88
2018-09-16T05:27:37.647Z,101799.83
2018-09-16T05:30:03.610Z,101801.50
2018-09-16T05:32:29.548Z,101806.44
2018-09-16T05:34:55.500Z,101809.19
2018-09-16T05:37:21.445Z,101806.06
2018-09-16T05:39:47.387Z,101812.20
2018-09-16T05:42:13.331Z,101813.88
2018-09-16T05:44:39.267Z,101817.00
2018-09-16T05:47:05.211Z,101816.63
2018-09-16T05:49:31.160Z,101824.92
2018-09-16T05:51:57.187Z,101826.36
2018-09-16T05:54:23.151Z,101822.39
2018-09-16T05:56:49.090Z,101826.36
2018-09-16T05:59:15.108Z,101818.44
2018-09-16T06:01:41.000Z,101819.27
2018-09-16T06:04:06.966Z,101820.24
2018-09-16T06:06:32.920Z,101822.05
2018-09-16T06:08:58.976Z,101826.84
2018-09-16T06:11:24.939Z,101834.42
2018-09-16T06:13:50.884Z,101833.56
2018-09-16T06:16:16.844Z,101836.69
2018-09-16T06:18:42.790Z,101839.70
2018-09-16T06:21:08.789Z,101834.77
2018-09-16T06:23:34.738Z,101840.54
2018-09-16T06:26:00.703Z,101838.49
2018-09-16T06:28:26.727Z,101838.00
2018-09-16T06:30:52.691Z,101837.90
2018-09-16T06:33:18.642Z,101841.86
2018-09-16T06:35:44.589Z,101837.90
2018-09-16T06:38:10.531Z,101838.38
2018-09-16T06:40:36.545Z,101831.78
2018-09-16T06:43:02.461Z,101834.42
2018-09-16T06:45:28.408Z,101839.08
2018-09-16T06:47:54.350Z,101839.22
2018-09-16T06:50:20.370Z,101826.84
2018-09-16T06:52:46.341Z,101822.05
2018-09-16T06:55:12.295Z,101824.55
2018-09-16T06:57:38.243Z,101819.16
2018-09-16T07:00:04.190Z,101824.09
2018-09-16T07:02:30.152Z,101818.67
2018-09-16T07:04:56.091Z,101815.30
2018-09-16T07:07:22.066Z,101815.30
2018-09-16T07:09:48.027Z,101811.34
2018-09-16T07:12:13.969Z,101815.54
2018-09-16T07:14:39.927Z,101806.44
2018-09-16T07:17:05.908Z,101814.36
2018-09-16T07:19:31.853Z,101811.72
2018-09-16T07:21:57.836Z,101809.08
2018-09-16T07:24:23.891Z,101812.06
2018-09-16T07:26:49.877Z,101808.59
2018-09-16T07:29:15.786Z,101806.78
2018-09-16T07:31:41.771Z,101805.23
2018-09-16T07:34:07.799Z,101797.81
2018-09-16T07:36:33.778Z,101801.86
2018-09-16T07:38:59.966Z,101802.84
2018-09-16T07:41:26.051Z,101801.27
2018-09-16T07:43:52.067Z,101805.23
2018-09-16T07:46:18.098Z,101806.30
2018-09-16T07:48:45.054Z,101809.80
2018-09-16T07:51:11.124Z,101809.31
2018-09-16T07:53:37.069Z,101808.72
2018-09-16T07:56:03.008Z,101808.23
2018-09-16T07:58:29.001Z,101803.77
2018-09-16T08:00:54.923Z,101808.45
2018-09-16T08:03:20.914Z,101807.13
2018-09-16T08:05:46.876Z,101810.61
2018-09-16T08:08:12.884Z,101810.61
2018-09-16T08:10:38.832Z,101817.34
2018-09-16T08:13:04.800Z,101818.89
2018-09-16T08:15:30.853Z,101821.16
2018-09-16T08:17:56.812Z,101816.82
2018-09-16T08:20:23.048Z,101818.27
2018-09-16T08:22:48.996Z,101816.57
2018-09-16T08:25:14.972Z,101816.08
2018-09-16T08:27:41.007Z,101824.13
2018-09-16T08:30:06.973Z,101827.86
2018-09-16T08:32:32.930Z,101828.78
2018-09-16T08:34:58.873Z,101830.36
2018-09-16T08:37:24.911Z,101832.03
2018-09-16T08:39:50.940Z,101831.42
2018-09-16T08:42:16.876Z,101822.29
2018-09-16T08:44:43.020Z,101819.53
2018-09-16T08:47:08.973Z,101817.23
2018-09-16T08:49:34.942Z,101819.38
2018-09-16T08:52:00.895Z,101820.25
2018-09-16T08:54:26.963Z,101818.29
2018-09-16T08:56:52.923Z,101818.29
2018-09-16T08:59:18.875Z,101816.63
2018-09-16T09:01:44.832Z,101809.90
2018-09-16T09:04:10.832Z,101809.30
2018-09-16T09:06:36.729Z,101810.47
2018-09-16T09:09:02.713Z,101799.41
2018-09-16T09:11:28.671Z,101801.22
2018-09-16T09:13:54.643Z,101807.71
2018-09-16T09:16:20.668Z,101798.95
2018-09-16T09:18:46.642Z,101794.83
2018-09-16T09:21:12.600Z,101788.59
2018-09-16T09:23:38.550Z,101791.24
2018-09-16T09:26:04.506Z,101796.38
2018-09-16T09:28:30.456Z,101794.57
2018-09-16T09:30:56.445Z,101790.14
2018-09-16T09:33:22.451Z,101790.27
2018-09-16T09:35:48.413Z,101787.36
2018-09-16T09:38:14.371Z,101783.27
2018-09-16T09:40:40.329Z,101786.48
2018-09-16T09:43:06.369Z,101786.02
2018-09-16T09:45:32.327Z,101782.41
2018-09-16T09:47:58.300Z,101782.52
2018-09-16T09:50:24.366Z,101784.70
2018-09-16T09:52:50.311Z,101780.85
2018-09-16T09:55:16.341Z,101776.66
2018-09-16T09:57:42.307Z,101773.30
2018-09-16T10:00:08.369Z,101771.25
2018-09-16T10:02:34.320Z,101770.16
2018-09-16T10:05:00.326Z,101766.65
2018-09-16T10:07:26.229Z,101765.21
2018-09-16T10:09:52.488Z,101763.89
2018-09-16T10:12:18.463Z,101755.83
2018-09-16T10:14:44.413Z,101750.66
2018-09-16T10:17:10.373Z,101750.17
2018-09-16T10:19:36.351Z,101742.23
2018-09-16T10:22:02.346Z,101734.80
2018-09-16T10:24:28.346Z,101729.63
2018-09-16T10:26:54.253Z,101723.61
2018-09-16T10:29:20.268Z,101723.38
2018-09-16T10:31:46.223Z,101722.88
2018-09-16T10:34:12.171Z,101713.84
2018-09-16T10:36:38.208Z,101710.48
2018-09-16T10:39:04.148Z,101713.39
2018-09-16T10:41:30.107Z,101703.64
2018-09-16T10:43:56.071Z,101703.98
2018-09-16T10:46:22.050Z,101700.16
2018-09-16T10:48:48.004Z,101701.70
2018-09-16T10:51:13.987Z,101692.45
2018-09-16T10:53:39.951Z,101688.72
2018-09-16T10:56:06.012Z,101679.95
2018-09-16T10:58:31.977Z,101677.80
2018-09-16T11:00:57.923Z,101669.59
2018-09-16T11:03:23.888Z,101673.07
2018-09-16T11:05:49.841Z,101672.83
2018-09-16T11:08:15.844Z,101671.72
2018-09-16T11:10:41.775Z,101663.79
2018-09-16T11:13:07.732Z,101662.47
2018-09-16T11:15:33.696Z,101659.21
2018-09-16T11:17:59.664Z,101658.84
2018-09-16T11:20:25.691Z,101654.31
2018-09-16T11:22:51.671Z,101660.55
2018-09-16T11:25:17.637Z,101651.02
2018-09-16T11:27:44.598Z,101649.85
2018-09-16T11:30:10.636Z,101643.85
2018-09-16T11:32:36.516Z,101644.07
2018-09-16T11:35:02.479Z,101648.66
2018-09-16T11:37:28.423Z,101640.59
2018-09-16T11:39:54.378Z,101637.34
2018-09-16T11:42:20.330Z,101632.38
2018-09-16T11:44:46.300Z,101629.25
2018-09-16T11:47:12.259Z,101623.50
2018-09-16T11:49:38.284Z,101629.73
2018-09-16T11:52:04.326Z,101618.20
2018-09-16T11:54:30.273Z,101617.34
2018-09-16T11:56:56.225Z,101610.27
2018-09-16T11:59:22.191Z,101610.00
2018-09-16T12:01:48.146Z,101607.96
2018-09-16T12:04:14.123Z,101605.31
2018-09-16T12:06:40.079Z,101602.67
2018-09-16T12:09:06.068Z,101599.69
2018-09-16T12:11:32.096Z,101594.40
2018-09-16T12:13:58.176Z,101603.01
2018-09-16T12:16:24.178Z,101598.09
2018-09-16T12:18:50.122Z,101595.94
2018-09-16T12:21:16.294Z,101588.34
2018-09-16T12:23:42.236Z,101583.88
2018-09-16T12:26:08.186Z,101582.22
2018-09-16T12:28:34.207Z,101575.60
2018-09-16T12:31:00.276Z,101571.14
2018-09-16T12:33:26.217Z,101573.66
2018-09-16T12:35:52.188Z,101572.06
2018-09-16T12:38:18.320Z,101568.70
2018-09-16T12:40:44.273Z,101561.61
2018-09-16T12:43:10.237Z,101560.16
2018-09-16T12:45:36.217Z,101557.02
2018-09-16T12:48:02.241Z,101554.03
2018-09-16T12:50:28.212Z,101557.51
2018-09-16T12:52:54.282Z,101555.42
2018-09-16T12:55:20.361Z,101553.63
2018-09-16T12:57:46.343Z,101551.61
2018-09-16T13:00:12.294Z,101542.80
2018-09-16T13:02:38.348Z,101544.63
2018-09-16T13:05:04.299Z,101541.97
2018-09-16T13:07:30.349Z,101541.14
2018-09-16T13:09:56.372Z,101532.72
2018-09-16T13:12:22.325Z,101532.47
2018-09-16T13:14:48.333Z,101520.56
2018-09-16T13:17:14.286Z,101523.88
2018-09-16T13:19:40.293Z,101523.88
2018-09-16T13:22:06.256Z,101515.32
2018-09-16T13:24:32.198Z,101521.11
2018-09-16T13:26:58.168Z,101520.48
2018-09-16T13:29:24.116Z,101523.97
2018-09-16T13:31:50.091Z,101519.66
2018-09-16T13:34:16.057Z,101520.12
2018-09-16T13:36:42.028Z,101514.00
2018-09-16T13:39:07.986Z,101508.37
2018-09-16T13:41:33.929Z,101501.34
2018-09-16T13:43:59.970Z,101498.70
2018-09-16T13:46:25.939Z,101493.20
2018-09-16T13:48:52.154Z,101491.38
2018-09-16T13:51:18.208Z,101493.66
2018-09-16T13:53:44.267Z,101484.56
2018-09-16T13:56:10.144Z,101487.05
2018-09-16T13:58:36.110Z,101486.92
2018-09-16T14:01:02.084Z,101484.14
2018-09-16T14:03:28.046Z,101476.55
2018-09-16T14:05:54.004Z,101478.70
2018-09-16T14:08:19.976Z,101465.34
2018-09-16T14:10:46.000Z,101464.84
2018-09-16T14:13:12.027Z,101461.86
2018-09-16T14:15:38.010Z,101460.17
2018-09-16T14:18:03.961Z,101457.41
2018-09-16T14:20:29.913Z,101443.96
2018-09-16T14:22:56.084Z,101441.03
2018-09-16T14:25:22.032Z,101445.83
2018-09-16T14:27:47.983Z,101443.34
2018-09-16T14:30:13.940Z,101439.38
2018-09-16T14:32:39.908Z,101431.44
2018-09-16T14:35:05.845Z,101429.95
2018-09-16T14:37:31.864Z,101431.27
2018-09-16T14:39:57.827Z,101426.14
2018-09-16T14:42:23.809Z,101428.30
2018-09-16T14:44:49.769Z,101423.83
2018-09-16T14:47:15.730Z,101417.58
2018-09-16T14:49:41.684Z,101420.06
2018-09-16T14:52:07.724Z,101416.59
2018-09-16T14:54:33.665Z,101413.95
2018-09-16T14:56:59.718Z,101408.16
2018-09-16T14:59:25.680Z,101403.03
2018-09-16T15:01:51.627Z,101401.20
2018-09-16T15:04:17.588Z,101399.39
2018-09-16T15:06:43.584Z,101397.73
2018-09-16T15:09:09.548Z,101397.23
2018-09-16T15:11:35.495Z,101399.88
2018-09-16T15:14:01.506Z,101399.73
2018-09-16T15:16:27.457Z,101394.09
2018-09-16T15:18:53.435Z,101393.47
2018-09-16T15:21:19.434Z,101392.28
2018-09-16T15:23:45.428Z,101384.21
2018-09-16T15:26:11.468Z,101383.09
2018-09-16T15:28:37.490Z,101387.40
2018-09-16T15:31:03.534Z,101387.06
2018-09-16T15:33:29.500Z,101390.05
2018-09-16T15:35:55.445Z,101384.12
2018-09-16T15:38:21.399Z,101381.14
2018-09-16T15:40:47.352Z,101371.52
2018-09-16T15:43:13.304Z,101367.55
2018-09-16T15:45:39.269Z,101367.42
2018-09-16T15:48:05.229Z,101363.58
2018-09-16T15:50:31.184Z,101360.10
2018-09-16T15:52:57.131Z,101362.63
2018-09-16T15:55:23.212Z,101357.79
2018-09-16T15:57:49.132Z,101365.39
2018-09-16T16:00:15.044Z,101360.59
2018-09-16T16:02:41.089Z,101359.11
2018-09-16T16:05:07.041Z,101355.80
2018-09-16T16:07:33.039Z,101356.13
2018-09-16T16:09:58.997Z,101356.47
2018-09-16T16:12:24.961Z,101360.10
2018-09-16T16:14:51.040Z,101354.68
2018-09-16T16:17:17.016Z,101352.86
2018-09-16T16:19:42.967Z,101366.92
2018-09-16T16:22:08.931Z,101370.76
2018-09-16T16:24:34.896Z,101364.48
2018-09-16T16:27:00.910Z,101365.96
2018-09-16T16:29:26.876Z,101358.85
2018-09-16T16:31:52.895Z,101362.82
2018-09-16T16:34:18.924Z,101356.20
2018-09-16T16:36:44.819Z,101359.81
2018-09-16T16:39:10.795Z,101359.68
2018-09-16T16:41:36.760Z,101361.50
2018-09-16T16:44:02.744Z,101357.03
2018-09-16T16:46:28.684Z,101358.36
2018-09-16T16:48:54.660Z,101351.73
2018-09-16T16:51:20.584Z,101362.33
2018-09-16T16:53:46.579Z,101366.80
2018-09-16T16:56:12.551Z,101373.91
2018-09-16T16:58:38.528Z,101373.04
2018-09-16T17:01:04.507Z,101377.71
2018-09-16T17:03:30.500Z,101379.86
2018-09-16T17:05:56.451Z,101369.14
2018-09-16T17:08:22.423Z,101373.45
2018-09-16T17:10:48.376Z,101376.09
2018-09-16T17:13:14.329Z,101373.12
2018-09-16T17:15:40.295Z,101369.64
2018-09-16T17:18:06.300Z,101374.73
2018-09-16T17:20:32.269Z,101380.52
2018-09-16T17:22:58.222Z,101383.00
2018-09-16T17:25:24.203Z,101374.73
2018-09-16T17:27:50.267Z,101371.72
2018-09-16T17:30:16.247Z,101370.27
2018-09-16T17:32:42.234Z,101369.28
2018-09-16T17:35:08.297Z,101375.77
2018-09-16T17:37:34.425Z,101377.09
2018-09-16T17:40:00.405Z,101375.14
2018-09-16T17:42:26.370Z,101368.85
2018-09-16T17:44:52.313Z,101373.32
2018-09-16T17:47:18.277Z,101363.85
2018-09-16T17:49:44.226Z,101371.66
2018-09-16T17:52:10.186Z,101373.61
2018-09-16T17:54:36.170Z,101373.04
2018-09-16T17:57:02.116Z,101374.23
2018-09-16T17:59:28.078Z,101370.13
2018-09-16T18:01:54.044Z,101366.80
2018-09-16T18:04:20.075Z,101376.39
2018-09-16T18:06:46.054Z,101380.23
2018-09-16T18:09:12.032Z,101379.40
2018-09-16T18:11:37.995Z,101388.17
2018-09-16T18:14:03.980Z,101386.64
2018-09-16T18:16:29.986Z,101382.67
2018-09-16T18:18:55.888Z,101390.95
2018-09-16T18:21:21.999Z,101385.45
2018-09-16T18:23:48.023Z,101392.43
2018-09-16T18:26:13.999Z,101390.25
2018-09-16T18:28:39.965Z,101388.72
2018-09-16T18:31:06.062Z,101403.97
2018-09-16T18:33:32.011Z,101395.91
2018-09-16T18:35:58.010Z,101397.72
2018-09-16T18:38:23.953Z,101391.73
2018-09-16T18:40:49.914Z,101396.40
2018-09-16T18:43:15.878Z,101400.38
2018-09-16T18:45:41.800Z,101398.68
2018-09-16T18:48:07.752Z,101401.33
2018-09-16T18:50:33.773Z,101401.33
2018-09-16T18:52:59.720Z,101407.11
2018-09-16T18:55:25.667Z,101403.44
2018-09-16T18:57:51.708Z,101404.77
2018-09-16T19:00:17.652Z,101400.09
2018-09-16T19:02:43.649Z,101404.06
2018-09-16T19:05:09.687Z,101396.13
2018-09-16T19:07:35.664Z,101392.77
2018-09-16T19:10:01.639Z,101396.13
2018-09-16T19:12:27.594Z,101395.96
2018-09-16T19:14:53.541Z,101392.85
2018-09-16T19:17:19.492Z,101390.67
2018-09-16T19:19:45.543Z,101391.78
2018-09-16T19:22:11.580Z,101395.42
2018-09-16T19:24:37.617Z,101402.86
2018-09-16T19:27:03.570Z,101400.84
2018-09-16T19:29:29.515Z,101400.02
2018-09-16T19:31:55.457Z,101407.33
2018-09-16T19:34:21.403Z,101407.33
2018-09-16T19:36:47.444Z,101401.70
2018-09-16T19:39:13.392Z,101407.20
2018-09-16T19:41:39.355Z,101404.06
2018-09-16T19:44:05.300Z,101404.69
2018-09-16T19:46:31.296Z,101406.50
2018-09-16T19:48:57.261Z,101410.31
2018-09-16T19:51:23.317Z,101407.04
2018-09-16T19:53:49.284Z,101409.97
2018-09-16T19:56:15.253Z,101416.26
2018-09-16T19:58:41.306Z,101417.29
2018-09-16T20:01:07.288Z,101415.67
2018-09-16T20:03:33.244Z,101417.00
2018-09-16T20:05:59.296Z,101416.80
2018-09-16T20:08:25.326Z,101416.92
2018-09-16T20:10:51.283Z,101427.05
2018-09-16T20:13:17.235Z,101425.36
2018-09-16T20:15:43.312Z,101427.17
2018-09-16T20:18:09.268Z,101423.83
2018-09-16T20:20:35.231Z,101429.95
2018-09-16T20:23:01.246Z,101428.78
2018-09-16T20:25:27.323Z,101427.92
2018-09-16T20:27:53.268Z,101422.42
2018-09-16T20:30:19.223Z,101424.11
2018-09-16T20:32:45.178Z,101422.30
2018-09-16T20:35:11.136Z,101423.29
2018-09-16T20:37:37.141Z,101430.23
2018-09-16T20:40:03.111Z,101427.09
2018-09-16T20:42:29.057Z,101432.39
2018-09-16T20:44:55.068Z,101431.56
2018-09-16T20:47:21.035Z,101427.88
2018-09-16T20:49:46.993Z,101420.69
2018-09-16T20:52:13.026Z,101425.98
2018-09-16T20:54:39.002Z,101430.81
2018-09-16T20:57:04.964Z,101438.54
2018-09-16T20:59:30.936Z,101442.52
2018-09-16T21:01:56.916Z,101435.89
2018-09-16T21:04:22.865Z,101447.80
2018-09-16T21:06:48.888Z,101440.33
2018-09-16T21:09:14.844Z,101443.59
2018-09-16T21:11:40.809Z,101441.59
2018-09-16T21:14:06.788Z,101435.45
2018-09-16T21:16:32.720Z,101441.10
2018-09-16T21:18:58.701Z,101436.64
2018-09-16T21:21:24.667Z,101440.95
2018-09-16T21:23:50.612Z,101441.44
2018-09-16T21:26:16.722Z,101435.94
2018-09-16T21:28:42.571Z,101430.81
2018-09-16T21:31:08.535Z,101428.00
2018-09-16T21:33:34.480Z,101432.96
2018-09-16T21:36:00.457Z,101433.09
2018-09-16T21:38:26.423Z,101434.78
2018-09-16T21:40:52.392Z,101437.05
2018-09-16T21:43:18.335Z,101434.69
2018-09-16T21:45:44.432Z,101435.73
2018-09-16T21:48:10.412Z,101429.28
2018-09-16T21:50:36.397Z,101431.22
2018-09-16T21:53:02.427Z,101427.05
2018-09-16T21:55:28.381Z,101427.05
2018-09-16T21:57:54.387Z,101430.64
2018-09-16T22:00:20.617Z,101429.32
2018-09-16T22:02:46.555Z,101431.62
2018-09-16T22:05:12.511Z,101427.05
2018-09-16T22:07:38.574Z,101425.84
2018-09-16T22:10:04.575Z,101426.67
2018-09-16T22:12:30.519Z,101420.69
2018-09-16T22:14:56.482Z,101424.66
2018-09-16T22:17:22.439Z,101420.22
2018-09-16T22:19:48.382Z,101415.14
2018-09-16T22:22:14.348Z,101411.63
2018-09-16T22:24:40.527Z,101410.19
2018-09-16T22:27:06.491Z,101418.95
2018-09-16T22:29:32.455Z,101417.29
2018-09-16T22:31:58.434Z,101406.22
2018-09-16T22:34:24.448Z,101412.50
2018-09-16T22:36:50.390Z,101411.51
2018-09-16T22:39:16.363Z,101431.72
2018-09-16T22:41:42.311Z,101426.88
2018-09-16T22:44:08.277Z,101430.85
2018-09-16T22:46:34.240Z,101426.42
2018-09-16T22:49:00.315Z,101421.59
2018-09-16T22:51:26.263Z,101427.38
2018-09-16T22:53:52.220Z,101425.93
2018-09-16T22:56:18.160Z,101424.23
2018-09-16T22:58:44.192Z,101429.89
2018-09-16T23:01:10.109Z,101430.52
2018-09-16T23:03:36.327Z,101419.23
2018-09-16T23:06:02.410Z,101421.39
2018-09-16T23:08:28.353Z,101420.06
2018-09-16T23:10:54.318Z,101416.37
2018-09-16T23:13:20.264Z,101415.39
2018-09-16T23:15:46.215Z,101410.27
2018-09-16T23:18:12.193Z,101408.45
2018-09-16T23:20:38.151Z,101410.39
2018-09-16T23:23:04.095Z,101401.50
2018-09-16T23:25:30.084Z,101405.80
2018-09-16T23:27:56.123Z,101408.94
2018-09-16T23:30:22.044Z,101413.40
2018-09-16T23:32:47.989Z,101416.37
2018-09-16T23:35:13.984Z,101418.53
2018-09-16T23:37:39.927Z,101415.39
2018-09-16T23:40:05.902Z,101413.73
2018-09-16T23:42:31.849Z,101411.22
2018-09-16T23:44:57.792Z,101414.36
2018-09-16T23:47:23.766Z,101420.14
2018-09-16T23:49:49.726Z,101420.14
2018-09-16T23:52:15.678Z,101416.17
2018-09-16T23:54:41.622Z,101417.98
2018-09-16T23:57:07.564Z,101421.25
2018-09-16T23:59:33.523Z,101421.25
